Time;durP1;ratioP1;P1;durP2;ratioP2;P2;SDS_P1;SDS_P2;PMS_P1;PMS_P2;Temp;Humidity;BMP_temperature;BMP_pressure;BME280_temperature;BME280_humidity;BME280_pressure;Samples;Min_cycle;Max_cycle;Signal;HPM_P1;HPM_P2
2022/12/11 00:01:37;;;;;;;42.70;31.97;;;0.40;99.90;;;;;;5075471;28;20246;-76
2022/12/11 00:04:02;;;;;;;40.93;29.70;;;0.50;99.90;;;;;;5092541;28;20209;-77
2022/12/11 00:06:28;;;;;;;43.77;29.00;;;0.40;99.90;;;;;;5055449;28;20549;-77
2022/12/11 00:08:54;;;;;;;40.70;28.00;;;0.40;99.90;;;;;;5054969;28;20227;-76
2022/12/11 00:11:21;;;;;;;40.73;26.90;;;0.50;99.90;;;;;;5073151;28;20197;-77
2022/12/11 00:13:47;;;;;;;41.60;27.13;;;0.50;99.90;;;;;;5073138;28;20191;-77
2022/12/11 00:16:14;;;;;;;43.13;26.90;;;0.40;99.90;;;;;;5091368;28;20191;-77
2022/12/11 00:18:40;;;;;;;42.83;26.30;;;0.40;99.90;;;;;;5075069;28;20272;-77
2022/12/11 00:21:09;;;;;;;44.37;26.03;;;0.40;99.90;;;;;;5075487;28;20697;-76
2022/12/11 00:23:36;;;;;;;34.63;23.07;;;0.30;99.90;;;;;;5093212;28;20187;-77
2022/12/11 00:26:08;;;;;;;35.80;24.03;;;0.30;99.90;;;;;;5074497;28;20192;-77
2022/12/11 00:28:34;;;;;;;36.03;25.67;;;0.40;99.90;;;;;;5074694;28;20181;-78
2022/12/11 00:31:08;;;;;;;39.07;24.47;;;0.50;99.90;;;;;;5074813;28;20251;-77
2022/12/11 00:33:34;;;;;;;37.10;25.30;;;0.40;99.90;;;;;;5075074;28;20185;-77
2022/12/11 00:36:00;;;;;;;41.07;25.97;;;0.40;99.90;;;;;;5074196;28;20267;-77
2022/12/11 00:38:26;;;;;;;40.00;26.30;;;0.40;99.90;;;;;;5074070;28;20933;-77
2022/12/11 00:40:52;;;;;;;36.97;25.53;;;0.40;99.90;;;;;;5092554;28;20223;-75
2022/12/11 00:43:18;;;;;;;35.40;24.87;;;0.40;99.90;;;;;;5093277;28;20242;-75
2022/12/11 00:45:45;;;;;;;36.23;25.03;;;0.30;99.90;;;;;;5062298;28;20194;-75
2022/12/11 00:48:12;;;;;;;38.30;25.27;;;0.40;99.90;;;;;;5057069;28;20188;-76
2022/12/11 00:50:39;;;;;;;33.37;23.30;;;0.40;99.90;;;;;;5075502;28;20218;-76
2022/12/11 00:53:05;;;;;;;30.80;22.30;;;0.40;99.90;;;;;;5072914;28;20184;-75
2022/12/11 00:55:34;;;;;;;30.47;21.80;;;0.40;99.90;;;;;;5083885;28;20609;-75
2022/12/11 00:58:00;;;;;;;33.77;21.50;;;0.40;99.90;;;;;;5075900;28;20520;-75
2022/12/11 01:00:26;;;;;;;29.83;20.27;;;0.40;99.90;;;;;;5074734;28;20206;-76
2022/12/11 01:02:52;;;;;;;29.90;21.43;;;0.40;99.90;;;;;;5092804;28;20188;-76
2022/12/11 01:05:18;;;;;;;27.87;22.57;;;0.50;99.90;;;;;;5082503;28;20177;-75
2022/12/11 01:07:43;;;;;;;27.77;24.17;;;0.50;99.90;;;;;;5068039;28;20188;-76
2022/12/11 01:10:23;;;;;;;27.17;21.67;;;0.60;99.90;;;;;;5074035;28;20213;-75
2022/12/11 01:12:59;;;;;;;24.73;18.63;;;0.60;99.90;;;;;;5074352;28;20285;-75
2022/12/11 01:15:30;;;;;;;24.83;18.23;;;0.50;99.90;;;;;;5063395;28;20258;-76
2022/12/11 01:17:56;;;;;;;25.07;17.70;;;0.60;99.90;;;;;;5055256;28;20189;-75
2022/12/11 01:20:24;;;;;;;24.87;17.93;;;0.50;99.90;;;;;;5075580;28;20237;-77
2022/12/11 01:22:55;;;;;;;26.97;18.30;;;0.50;99.90;;;;;;5072209;28;20639;-77
2022/12/11 01:25:21;;;;;;;23.73;17.40;;;0.40;99.90;;;;;;5071725;28;20271;-77
2022/12/11 01:27:50;;;;;;;21.37;16.27;;;0.40;99.90;;;;;;5071207;28;20220;-77
2022/12/11 01:30:17;;;;;;;23.03;16.03;;;0.30;99.90;;;;;;5053549;28;20213;-77
2022/12/11 01:32:43;;;;;;;20.97;15.93;;;0.30;99.90;;;;;;5071350;28;20636;-77
2022/12/11 01:35:10;;;;;;;17.50;14.63;;;0.40;99.90;;;;;;5071500;28;20179;-77
2022/12/11 01:37:35;;;;;;;19.50;14.23;;;0.30;99.90;;;;;;5053229;28;20182;-77
2022/12/11 01:40:03;;;;;;;13.30;11.83;;;0.30;99.90;;;;;;5053421;28;20233;-77
2022/12/11 01:42:29;;;;;;;13.83;12.37;;;0.30;99.90;;;;;;5071460;28;20323;-77
2022/12/11 01:45:33;;;;;;;23.43;14.70;;;0.30;99.90;;;;;;5077026;28;20262;-77
2022/12/11 01:48:04;;;;;;;18.23;14.60;;;0.30;99.90;;;;;;5091558;28;20313;-77
2022/12/11 01:50:35;;;;;;;17.67;13.03;;;0.40;99.90;;;;;;5073272;28;20642;-77
2022/12/11 01:53:03;;;;;;;15.27;13.30;;;0.40;99.90;;;;;;5073469;28;20599;-77
2022/12/11 01:55:29;;;;;;;13.80;11.30;;;0.40;99.90;;;;;;5090660;28;20173;-76
2022/12/11 01:57:55;;;;;;;15.20;13.30;;;0.30;99.90;;;;;;5073111;28;20260;-77
2022/12/11 02:00:21;;;;;;;15.77;11.07;;;0.30;99.90;;;;;;5073378;28;20653;-77
2022/12/11 02:02:47;;;;;;;12.87;11.27;;;0.30;99.90;;;;;;5073309;28;20200;-77
2022/12/11 02:05:12;;;;;;;17.07;11.57;;;0.30;99.90;;;;;;5082222;28;20174;-77
2022/12/11 02:07:47;;;;;;;14.70;11.83;;;0.30;99.90;;;;;;5072679;28;20193;-77
2022/12/11 02:10:13;;;;;;;13.53;11.50;;;0.40;99.90;;;;;;5070954;28;20253;-77
2022/12/11 02:13:12;;;;;;;17.53;12.80;;;0.40;99.90;;;;;;5070980;28;20175;-76
2022/12/11 02:16:16;;;;;;;14.63;13.10;;;0.40;99.90;;;;;;5064369;28;20532;-76
2022/12/11 02:18:54;;;;;;;13.77;12.23;;;0.40;99.90;;;;;;5090720;28;20177;-77
2022/12/11 02:21:24;;;;;;;13.50;12.07;;;0.40;99.90;;;;;;5091078;28;20216;-76
2022/12/11 02:24:11;;;;;;;14.50;12.13;;;0.40;99.90;;;;;;5091053;28;20183;-76
2022/12/11 02:26:59;;;;;;;14.13;12.60;;;0.40;99.90;;;;;;5053287;28;20189;-75
2022/12/11 02:29:32;;;;;;;13.67;12.30;;;0.50;99.90;;;;;;5017371;28;20241;-75
2022/12/11 02:32:15;;;;;;;16.33;13.30;;;0.40;99.90;;;;;;5032443;28;20256;-74
2022/12/11 02:34:48;;;;;;;16.53;13.47;;;0.40;99.90;;;;;;5055308;28;20254;-75
2022/12/11 02:37:21;;;;;;;15.27;13.67;;;0.40;99.90;;;;;;5059821;28;20188;-75
2022/12/11 02:39:50;;;;;;;14.33;12.50;;;0.40;99.90;;;;;;5071778;28;20224;-77
2022/12/11 02:42:18;;;;;;;14.70;13.07;;;0.50;99.90;;;;;;5070919;28;20219;-76
2022/12/11 02:44:47;;;;;;;14.20;12.80;;;0.40;99.90;;;;;;5070715;28;20175;-76
2022/12/11 02:47:15;;;;;;;14.70;13.03;;;0.50;99.90;;;;;;5070714;28;20181;-76
2022/12/11 02:49:43;;;;;;;14.63;12.93;;;0.50;99.90;;;;;;5070476;28;20202;-76
2022/12/11 02:52:13;;;;;;;16.03;13.93;;;0.50;99.90;;;;;;5052741;28;20254;-76
2022/12/11 02:54:41;;;;;;;16.93;12.87;;;0.50;99.90;;;;;;5072085;28;20616;-76
2022/12/11 02:57:12;;;;;;;16.27;14.13;;;0.50;99.90;;;;;;5091242;28;20552;-77
2022/12/11 02:59:42;;;;;;;17.77;14.07;;;0.50;99.90;;;;;;5074224;28;20555;-76
2022/12/11 03:02:11;;;;;;;13.07;11.63;;;0.50;99.90;;;;;;5074192;28;20233;-75
2022/12/11 03:04:37;;;;;;;14.83;11.40;;;0.40;99.90;;;;;;5071741;28;20181;-76
2022/12/11 03:07:14;;;;;;;13.73;12.30;;;0.30;99.90;;;;;;5074752;28;20734;-76
2022/12/11 03:09:46;;;;;;;13.63;11.97;;;0.30;99.90;;;;;;5090371;28;20299;-77
2022/12/11 03:12:17;;;;;;;12.97;11.70;;;0.20;99.90;;;;;;5090649;28;20207;-76
2022/12/11 03:14:44;;;;;;;14.20;12.07;;;0.20;99.90;;;;;;5073213;28;20183;-76
2022/12/11 03:17:24;;;;;;;13.53;12.23;;;0.10;99.90;;;;;;5076862;28;20289;-76
2022/12/11 03:20:03;;;;;;;13.73;12.23;;;0.00;99.90;;;;;;5077050;28;20179;-76
2022/12/11 03:23:18;;;;;;;17.90;12.57;;;0.00;99.90;;;;;;5077621;28;20180;-76
2022/12/11 03:26:04;;;;;;;13.20;11.60;;;0.00;99.90;;;;;;5018909;28;20572;-76
2022/12/11 03:28:35;;;;;;;14.37;11.77;;;0.10;99.90;;;;;;5035879;28;20186;-76
2022/12/11 03:31:07;;;;;;;12.20;10.83;;;0.10;99.90;;;;;;5055476;28;20221;-76
2022/12/11 03:33:37;;;;;;;14.33;10.73;;;0.20;99.90;;;;;;5075227;28;20225;-76
2022/12/11 03:36:09;;;;;;;12.60;10.97;;;0.20;99.90;;;;;;5087343;28;20190;-74
2022/12/11 03:38:37;;;;;;;13.43;12.03;;;0.20;99.90;;;;;;5093726;28;20213;-75
2022/12/11 03:41:05;;;;;;;14.97;12.90;;;0.30;99.90;;;;;;5093811;28;20713;-74
2022/12/11 03:43:33;;;;;;;14.23;11.90;;;0.30;99.90;;;;;;5075735;28;20183;-75
2022/12/11 03:45:59;;;;;;;14.27;12.23;;;0.30;99.90;;;;;;5063520;28;20176;-76
2022/12/11 03:48:32;;;;;;;15.33;13.73;;;0.30;99.90;;;;;;5064336;28;20170;-77
2022/12/11 03:51:00;;;;;;;14.50;12.60;;;0.30;99.90;;;;;;5093773;28;20800;-76
2022/12/11 03:53:26;;;;;;;16.60;14.47;;;0.30;99.90;;;;;;5084444;28;20176;-77
2022/12/11 03:55:55;;;;;;;19.47;16.17;;;0.30;99.90;;;;;;5090423;28;20182;-77
2022/12/11 03:58:21;;;;;;;17.30;15.47;;;0.30;99.90;;;;;;5075929;28;20552;-77
2022/12/11 04:00:47;;;;;;;17.63;15.23;;;0.30;99.90;;;;;;5073544;28;20213;-77
2022/12/11 04:03:13;;;;;;;20.60;16.33;;;0.30;99.90;;;;;;5073690;28;20184;-77
2022/12/11 04:05:47;;;;;;;17.87;15.60;;;0.20;99.90;;;;;;5079055;28;20187;-77
2022/12/11 04:08:15;;;;;;;16.93;14.23;;;0.30;99.90;;;;;;5093271;28;20183;-76
2022/12/11 04:10:40;;;;;;;17.60;15.17;;;0.20;99.90;;;;;;5093676;28;20209;-77
2022/12/11 04:13:08;;;;;;;18.37;15.13;;;0.20;99.90;;;;;;5076015;28;20182;-77
2022/12/11 04:15:34;;;;;;;17.07;15.30;;;0.20;99.90;;;;;;5036641;28;20231;-77
2022/12/11 04:26:18;;;;;;;17.80;15.70;;;0.00;99.90;;;;;;5073186;28;20188;-78
2022/12/11 04:28:46;;;;;;;17.07;15.27;;;0.10;99.90;;;;;;5072721;28;20184;-76
2022/12/11 04:31:14;;;;;;;15.90;13.60;;;0.00;99.90;;;;;;5073338;28;20220;-76
2022/12/11 04:33:40;;;;;;;20.73;15.87;;;0.00;99.90;;;;;;5054841;28;20183;-76
2022/12/11 04:36:08;;;;;;;18.77;16.07;;;0.00;99.90;;;;;;5054337;28;20179;-76
2022/12/11 04:38:34;;;;;;;22.30;18.30;;;0.00;99.90;;;;;;5072017;28;20678;-76
2022/12/11 04:41:00;;;;;;;16.87;15.00;;;-0.10;99.90;;;;;;5072469;28;20213;-76
2022/12/11 04:43:26;;;;;;;17.93;15.33;;;-0.10;99.90;;;;;;5054646;28;20196;-76
2022/12/11 04:46:03;;;;;;;17.67;15.77;;;-0.10;99.90;;;;;;5054513;28;20177;-77
2022/12/11 04:48:29;;;;;;;18.23;14.73;;;0.00;99.90;;;;;;5078604;28;20259;-75
2022/12/11 04:50:55;;;;;;;17.23;14.67;;;0.00;99.90;;;;;;5092107;28;20355;-76
2022/12/11 04:53:21;;;;;;;16.30;13.77;;;0.00;99.90;;;;;;5092263;28;20202;-76
2022/12/11 04:55:47;;;;;;;18.30;15.37;;;0.00;99.90;;;;;;5074621;28;20207;-76
2022/12/11 04:58:13;;;;;;;16.80;14.03;;;0.00;99.90;;;;;;5091740;28;20655;-76
2022/12/11 05:00:39;;;;;;;20.77;15.17;;;0.10;99.90;;;;;;5074142;28;20224;-76
2022/12/11 05:03:05;;;;;;;17.93;14.23;;;0.10;99.90;;;;;;5082181;28;20189;-76
2022/12/11 05:05:31;;;;;;;16.00;13.50;;;0.10;99.90;;;;;;5053842;28;20190;-76
2022/12/11 05:07:57;;;;;;;17.80;14.33;;;0.10;99.90;;;;;;5053515;28;20947;-76
2022/12/11 05:10:22;;;;;;;21.63;15.53;;;0.10;99.90;;;;;;5071576;28;20773;-76
2022/12/11 05:12:48;;;;;;;22.70;14.27;;;0.20;99.90;;;;;;5072734;28;20186;-76
2022/12/11 05:15:14;;;;;;;17.77;14.50;;;0.20;99.90;;;;;;5056675;28;20174;-76
2022/12/11 05:17:40;;;;;;;18.63;13.83;;;0.20;99.90;;;;;;5065552;28;20184;-76
2022/12/11 05:20:06;;;;;;;18.53;15.03;;;0.20;99.90;;;;;;5073473;28;20751;-76
2022/12/11 05:22:32;;;;;;;18.67;14.90;;;0.30;99.90;;;;;;5073906;28;20257;-76
2022/12/11 05:24:58;;;;;;;20.20;16.10;;;0.30;99.90;;;;;;5091842;28;20226;-77
2022/12/11 05:27:23;;;;;;;23.27;16.07;;;0.30;99.90;;;;;;5091257;28;20252;-76
2022/12/11 05:29:49;;;;;;;22.70;16.40;;;0.30;99.90;;;;;;5091627;28;20205;-76
2022/12/11 05:32:15;;;;;;;23.43;17.60;;;0.30;99.90;;;;;;5076546;28;20197;-76
2022/12/11 05:34:41;;;;;;;20.57;17.00;;;0.30;99.90;;;;;;5054040;28;20351;-76
2022/12/11 05:37:06;;;;;;;18.83;15.43;;;0.30;99.90;;;;;;5071955;28;20185;-76
2022/12/11 05:39:32;;;;;;;18.17;15.00;;;0.30;99.90;;;;;;5053279;28;20190;-76
2022/12/11 05:41:58;;;;;;;20.13;16.57;;;0.20;99.90;;;;;;5053894;28;20218;-77
2022/12/11 05:44:24;;;;;;;19.53;16.27;;;0.20;99.90;;;;;;5053722;28;20184;-76
2022/12/11 05:46:50;;;;;;;20.03;16.63;;;0.10;99.90;;;;;;5088353;28;20181;-77
2022/12/11 05:49:16;;;;;;;19.13;17.00;;;0.10;99.90;;;;;;5072732;28;20620;-77
2022/12/11 05:51:42;;;;;;;21.57;17.63;;;0.00;99.90;;;;;;5073514;28;20200;-75
2022/12/11 05:54:09;;;;;;;23.77;17.60;;;-0.10;99.90;;;;;;5073261;28;20181;-76
2022/12/11 05:56:35;;;;;;;19.40;15.57;;;-0.10;99.90;;;;;;5073177;28;20181;-76
2022/12/11 05:59:03;;;;;;;21.60;16.53;;;-0.10;99.90;;;;;;5072531;28;20185;-76
2022/12/11 06:01:30;;;;;;;20.87;16.10;;;0.00;99.90;;;;;;5074562;28;20284;-77
2022/12/11 06:03:56;;;;;;;20.37;16.30;;;0.00;99.90;;;;;;5075467;28;20171;-77
2022/12/11 06:06:23;;;;;;;23.30;16.77;;;0.10;99.90;;;;;;5074153;28;20313;-76
2022/12/11 06:08:55;;;;;;;20.17;16.43;;;0.10;99.90;;;;;;5053497;28;20245;-76
2022/12/11 06:11:21;;;;;;;21.73;16.27;;;0.20;99.90;;;;;;5052721;28;20224;-76
2022/12/11 06:13:47;;;;;;;24.33;17.13;;;0.20;99.90;;;;;;5074972;28;20645;-76
2022/12/11 06:16:13;;;;;;;21.30;16.47;;;0.20;99.90;;;;;;5090943;28;20241;-77
2022/12/11 06:18:41;;;;;;;21.70;16.77;;;0.10;99.90;;;;;;5090295;28;20174;-77
2022/12/11 06:21:15;;;;;;;23.07;16.70;;;0.00;99.90;;;;;;5073112;28;20266;-77
2022/12/11 06:23:43;;;;;;;20.80;15.70;;;-0.20;99.90;;;;;;5072895;28;20191;-77
2022/12/11 06:26:10;;;;;;;24.20;17.10;;;-0.40;99.90;;;;;;5090460;28;20277;-76
2022/12/11 06:28:36;;;;;;;22.87;16.50;;;-0.50;99.90;;;;;;5081162;28;20192;-76
2022/12/11 06:31:02;;;;;;;22.83;16.07;;;-0.70;99.90;;;;;;5070308;28;20209;-76
2022/12/11 06:33:29;;;;;;;23.53;17.30;;;-0.80;99.90;;;;;;5052312;28;20180;-75
2022/12/11 06:35:55;;;;;;;23.03;17.37;;;-0.80;99.90;;;;;;5052502;28;20178;-76
2022/12/11 06:38:22;;;;;;;21.67;15.97;;;-0.90;99.90;;;;;;5052784;28;20177;-76
2022/12/11 06:41:00;;;;;;;22.33;17.13;;;-1.10;99.90;;;;;;5076781;23;20225;-74
2022/12/11 06:43:26;;;;;;;24.03;19.77;;;-1.10;99.90;;;;;;5070338;28;20274;-74
2022/12/11 06:45:52;;;;;;;25.83;19.57;;;-1.10;99.90;;;;;;5070405;28;20447;-74
2022/12/11 06:48:19;;;;;;;26.37;19.27;;;-1.10;99.90;;;;;;5069842;28;20193;-74
2022/12/11 06:50:45;;;;;;;31.40;18.67;;;-1.10;99.90;;;;;;5073633;28;20216;-72
2022/12/11 06:53:12;;;;;;;25.07;19.37;;;-1.00;99.90;;;;;;5094804;28;20184;-71
2022/12/11 06:55:38;;;;;;;29.90;18.60;;;-0.90;99.90;;;;;;5094457;28;20177;-71
2022/12/11 06:58:04;;;;;;;23.87;17.30;;;-0.90;99.90;;;;;;5077256;28;20576;-71
2022/12/11 07:00:29;;;;;;;28.40;18.97;;;-0.90;99.90;;;;;;5074060;28;20697;-71
2022/12/11 07:02:55;;;;;;;22.57;17.67;;;-0.80;99.90;;;;;;5074781;28;20185;-71
2022/12/11 07:05:21;;;;;;;23.23;16.40;;;-0.70;99.90;;;;;;5096476;28;20190;-71
2022/12/11 07:07:47;;;;;;;27.87;18.73;;;-0.60;99.90;;;;;;5074178;28;20314;-71
2022/12/11 07:10:12;;;;;;;23.80;18.70;;;-0.60;99.90;;;;;;5073951;28;20224;-71
2022/12/11 07:12:38;;;;;;;29.13;19.60;;;-0.50;99.90;;;;;;5073067;28;20203;-71
2022/12/11 07:15:05;;;;;;;24.63;18.63;;;-0.40;99.90;;;;;;5072906;28;20231;-71
2022/12/11 07:17:30;;;;;;;25.57;18.17;;;-0.40;99.90;;;;;;5073438;28;20178;-71
2022/12/11 07:19:56;;;;;;;23.93;18.43;;;-0.30;99.90;;;;;;5074001;28;20668;-72
2022/12/11 07:22:22;;;;;;;28.17;18.23;;;-0.30;99.90;;;;;;5071792;28;20247;-71
2022/12/11 07:24:48;;;;;;;25.50;19.17;;;-0.30;99.90;;;;;;5072594;28;20631;-70
2022/12/11 07:27:14;;;;;;;27.30;21.10;;;-0.20;99.90;;;;;;5078608;28;20205;-71
2022/12/11 07:29:40;;;;;;;30.73;23.50;;;-0.20;99.90;;;;;;5094358;28;20275;-72
2022/12/11 07:32:05;;;;;;;30.77;26.47;;;-0.10;99.90;;;;;;5094598;28;20689;-71
2022/12/11 07:34:31;;;;;;;30.40;25.83;;;0.00;99.90;;;;;;5094239;28;20188;-72
2022/12/11 07:36:57;;;;;;;25.70;19.57;;;0.10;99.90;;;;;;5092895;28;20233;-72
2022/12/11 07:39:23;;;;;;;27.43;19.73;;;0.10;99.90;;;;;;5087347;28;20184;-71
2022/12/11 07:41:49;;;;;;;30.33;20.10;;;0.20;99.90;;;;;;5073185;28;20219;-71
2022/12/11 07:44:14;;;;;;;28.33;20.50;;;0.30;99.90;;;;;;5073180;28;20617;-71
2022/12/11 07:46:40;;;;;;;28.20;19.23;;;0.40;99.90;;;;;;5073502;28;20273;-71
2022/12/11 07:49:06;;;;;;;28.53;19.23;;;0.40;99.90;;;;;;5084931;28;20187;-71
2022/12/11 07:51:35;;;;;;;25.20;19.00;;;0.50;99.90;;;;;;5093477;28;20597;-71
2022/12/11 07:54:13;;;;;;;27.23;20.00;;;0.50;99.90;;;;;;5092610;28;20174;-71
2022/12/11 07:56:39;;;;;;;26.10;19.60;;;0.50;99.90;;;;;;5093577;28;20181;-71
2022/12/11 07:59:06;;;;;;;26.93;19.20;;;0.50;99.90;;;;;;5084671;28;20168;-72
2022/12/11 08:01:35;;;;;;;31.50;21.17;;;0.50;99.90;;;;;;5069812;28;20322;-72
2022/12/11 08:04:02;;;;;;;25.17;19.03;;;0.50;99.90;;;;;;5072624;28;20196;-71
2022/12/11 08:06:30;;;;;;;27.13;20.40;;;0.50;99.90;;;;;;5071884;28;20546;-71
2022/12/11 08:08:57;;;;;;;29.70;20.90;;;0.50;99.90;;;;;;5068683;28;20183;-72
2022/12/11 08:11:23;;;;;;;26.00;19.07;;;0.50;99.90;;;;;;5072842;28;20599;-72
2022/12/11 08:13:49;;;;;;;27.00;17.93;;;0.60;99.90;;;;;;5071653;28;20176;-72
2022/12/11 08:16:16;;;;;;;26.47;19.00;;;0.50;99.90;;;;;;5072710;28;20182;-71
2022/12/11 08:18:43;;;;;;;24.87;17.13;;;0.60;99.90;;;;;;5073399;28;20180;-71
2022/12/11 08:21:16;;;;;;;23.07;17.63;;;0.60;99.90;;;;;;5072600;28;20744;-71
2022/12/11 08:23:42;;;;;;;24.63;18.13;;;0.60;99.90;;;;;;5070319;28;20184;-72
2022/12/11 08:26:17;;;;;;;25.53;18.47;;;0.70;99.90;;;;;;5070008;28;20268;-71
2022/12/11 08:28:43;;;;;;;26.83;19.03;;;0.70;99.90;;;;;;5073073;28;20547;-71
2022/12/11 08:31:11;;;;;;;29.83;20.63;;;0.70;99.90;;;;;;5071809;28;20213;-71
2022/12/11 08:33:38;;;;;;;28.13;19.47;;;0.80;99.90;;;;;;5085675;28;20224;-72
2022/12/11 08:36:06;;;;;;;27.40;20.60;;;0.80;99.90;;;;;;5093340;28;20173;-72
2022/12/11 08:38:32;;;;;;;27.80;20.20;;;0.90;99.90;;;;;;5084929;28;20172;-71
2022/12/11 08:40:58;;;;;;;27.97;21.00;;;1.00;99.90;;;;;;5071655;28;20210;-74
2022/12/11 08:43:24;;;;;;;29.97;21.57;;;0.90;99.90;;;;;;5071901;28;20235;-71
2022/12/11 08:45:50;;;;;;;27.10;19.67;;;0.90;99.90;;;;;;5071852;28;20178;-76
2022/12/11 08:48:16;;;;;;;57.03;52.23;;;1.00;99.90;;;;;;5090460;28;20181;-70
2022/12/11 08:50:42;;;;;;;28.63;21.03;;;1.00;99.90;;;;;;5092950;28;20295;-71
2022/12/11 08:53:07;;;;;;;24.97;19.47;;;1.10;99.90;;;;;;5090360;28;20200;-70
2022/12/11 08:55:33;;;;;;;25.77;20.03;;;1.00;99.90;;;;;;5074532;28;20186;-70
2022/12/11 08:57:59;;;;;;;30.63;21.47;;;1.00;99.90;;;;;;5053079;28;20191;-70
2022/12/11 09:00:25;;;;;;;26.40;21.13;;;1.10;99.90;;;;;;5070375;28;20178;-70
2022/12/11 09:02:51;;;;;;;30.07;21.67;;;1.10;99.90;;;;;;5077768;28;20197;-69
2022/12/11 09:05:17;;;;;;;32.27;21.23;;;1.20;99.90;;;;;;5071698;28;20532;-69
2022/12/11 09:07:43;;;;;;;30.47;21.77;;;1.40;99.90;;;;;;5071432;28;20184;-71
2022/12/11 09:10:09;;;;;;;25.27;20.33;;;1.70;99.90;;;;;;5070903;28;20206;-70
2022/12/11 09:12:35;;;;;;;26.00;19.57;;;2.00;99.90;;;;;;5071935;28;20201;-70
2022/12/11 09:15:02;;;;;;;27.27;20.20;;;2.00;99.90;;;;;;5072404;28;20180;-70
2022/12/11 09:17:28;;;;;;;26.03;20.00;;;2.00;99.90;;;;;;5072326;28;20250;-76
2022/12/11 09:19:54;;;;;;;29.03;20.97;;;1.80;99.90;;;;;;5071888;28;20646;-69
2022/12/11 09:22:20;;;;;;;23.73;18.90;;;1.70;99.90;;;;;;5070935;28;20681;-69
2022/12/11 09:24:45;;;;;;;23.07;18.73;;;1.60;99.90;;;;;;5069986;28;20179;-70
2022/12/11 09:27:11;;;;;;;22.60;18.87;;;1.30;99.90;;;;;;5069987;28;20180;-70
2022/12/11 09:29:38;;;;;;;22.87;20.00;;;1.20;99.90;;;;;;5075285;28;20207;-72
2022/12/11 09:32:04;;;;;;;28.87;21.70;;;1.20;99.90;;;;;;5090021;28;20209;-70
2022/12/11 09:34:30;;;;;;;28.13;20.40;;;1.20;99.90;;;;;;5091925;28;20173;-70
2022/12/11 09:36:56;;;;;;;28.00;19.47;;;1.30;99.90;;;;;;5091703;28;20185;-70
2022/12/11 09:39:22;;;;;;;26.63;18.63;;;1.40;99.90;;;;;;5091943;28;20173;-70
2022/12/11 09:42:10;;;;;;;25.33;18.53;;;1.60;99.90;;;;;;5091772;28;20220;-70
2022/12/11 09:44:53;;;;;;;25.50;19.63;;;1.70;99.90;;;;;;5091062;28;20652;-69
2022/12/11 09:47:21;;;;;;;27.33;19.57;;;1.90;99.90;;;;;;5091672;28;20187;-70
2022/12/11 09:49:52;;;;;;;23.77;19.20;;;2.10;99.90;;;;;;5090708;28;20204;-70
2022/12/11 09:52:27;;;;;;;23.77;18.90;;;2.10;99.90;;;;;;5090579;28;20197;-69
2022/12/11 09:54:59;;;;;;;27.97;18.93;;;2.10;99.90;;;;;;5090590;28;20237;-70
2022/12/11 09:57:47;;;;;;;23.00;17.60;;;2.10;99.90;;;;;;5091393;28;20215;-70
2022/12/11 10:00:53;;;;;;;21.57;16.70;;;1.90;99.90;;;;;;5051318;28;20673;-70
2022/12/11 10:03:22;;;;;;;22.90;16.00;;;1.90;99.90;;;;;;5051614;28;20239;-70
2022/12/11 10:06:16;;;;;;;23.73;17.70;;;1.90;99.90;;;;;;5051276;28;20809;-70
2022/12/11 10:09:04;;;;;;;22.53;17.23;;;1.80;99.90;;;;;;5050885;28;20182;-70
2022/12/11 10:11:45;;;;;;;25.60;19.67;;;1.90;99.90;;;;;;5051220;28;20208;-70
2022/12/11 10:14:37;;;;;;;27.00;19.20;;;1.90;99.90;;;;;;5090106;28;20189;-69
2022/12/11 10:17:19;;;;;;;30.37;21.13;;;1.90;99.90;;;;;;5089758;28;20182;-69
2022/12/11 10:19:46;;;;;;;32.47;22.60;;;2.00;99.90;;;;;;5091165;28;20660;-69
2022/12/11 10:22:22;;;;;;;28.10;21.37;;;2.00;99.90;;;;;;5090963;28;20291;-69
2022/12/11 10:24:55;;;;;;;29.17;21.27;;;2.10;99.90;;;;;;5090870;28;20239;-69
2022/12/11 10:27:29;;;;;;;32.03;23.63;;;2.10;99.90;;;;;;5078184;28;20185;-70
2022/12/11 10:30:16;;;;;;;30.63;23.13;;;2.00;99.90;;;;;;5070789;28;20210;-70
2022/12/11 10:32:48;;;;;;;32.17;22.10;;;2.00;99.90;;;;;;5069179;28;20208;-70
2022/12/11 10:35:37;;;;;;;28.80;21.90;;;2.20;99.90;;;;;;5070715;28;20232;-70
2022/12/11 10:38:28;;;;;;;28.47;21.83;;;2.30;99.90;;;;;;5070508;28;20181;-70
2022/12/11 10:41:00;;;;;;;28.47;21.67;;;2.40;99.90;;;;;;5079602;28;20206;-70
2022/12/11 10:43:38;;;;;;;24.80;20.53;;;2.40;99.90;;;;;;5097756;28;20178;-70
2022/12/11 10:46:11;;;;;;;25.37;19.83;;;2.40;99.90;;;;;;5108460;28;20261;-70
2022/12/11 10:49:00;;;;;;;26.27;19.20;;;2.40;99.90;;;;;;5090563;28;20188;-70
2022/12/11 10:51:34;;;;;;;20.10;16.87;;;2.50;99.90;;;;;;5089467;28;20216;-70
2022/12/11 10:54:24;;;;;;;33.77;19.90;;;2.40;99.90;;;;;;5089748;28;20180;-70
2022/12/11 10:56:50;;;;;;;31.93;17.77;;;2.40;99.90;;;;;;5054282;28;20180;-70
2022/12/11 10:59:31;;;;;;;23.57;18.67;;;2.30;99.90;;;;;;5050767;28;20609;-70
2022/12/11 11:01:57;;;;;;;23.90;18.07;;;2.30;99.90;;;;;;5049464;28;20203;-70
2022/12/11 11:04:37;;;;;;;25.77;19.63;;;2.40;99.90;;;;;;5050838;28;20190;-70
2022/12/11 11:07:22;;;;;;;25.40;20.27;;;2.30;99.90;;;;;;5050427;28;20188;-70
2022/12/11 11:09:50;;;;;;;28.33;19.83;;;2.30;99.90;;;;;;5057625;28;20200;-70
2022/12/11 11:12:17;;;;;;;30.87;20.67;;;2.10;99.90;;;;;;5089513;28;20201;-70
2022/12/11 11:14:43;;;;;;;24.07;19.07;;;2.00;99.90;;;;;;5089711;28;20202;-70
2022/12/11 11:17:14;;;;;;;26.37;18.23;;;1.80;99.90;;;;;;5090846;28;20226;-70
2022/12/11 11:19:40;;;;;;;27.53;18.57;;;1.80;99.90;;;;;;5090799;28;20212;-70
2022/12/11 11:22:12;;;;;;;24.57;18.30;;;1.80;99.90;;;;;;5090753;28;20220;-69
2022/12/11 11:24:50;;;;;;;25.93;19.43;;;1.80;99.90;;;;;;5085678;28;20186;-70
2022/12/11 11:27:35;;;;;;;26.53;19.73;;;1.70;99.90;;;;;;5069237;28;20237;-69
2022/12/11 11:30:04;;;;;;;25.47;17.80;;;1.80;99.90;;;;;;5070671;28;20333;-69
2022/12/11 11:32:38;;;;;;;26.53;19.73;;;1.80;99.90;;;;;;5070484;28;20198;-69
2022/12/11 11:35:11;;;;;;;29.90;21.27;;;1.80;99.90;;;;;;5069277;28;20576;-69
2022/12/11 11:37:38;;;;;;;27.83;21.37;;;1.80;99.90;;;;;;5070773;28;20181;-69
2022/12/11 11:40:17;;;;;;;27.87;20.17;;;1.80;99.90;;;;;;5088429;28;20178;-69
2022/12/11 11:42:54;;;;;;;26.60;18.90;;;1.70;99.90;;;;;;5093718;28;20701;-70
2022/12/11 11:45:27;;;;;;;25.23;19.27;;;1.70;99.90;;;;;;5094144;28;20185;-69
2022/12/11 11:48:44;;;;;;;27.60;18.43;;;1.80;99.90;;;;;;5093596;28;20192;-70
2022/12/11 11:51:25;;;;;;;23.97;17.10;;;1.80;99.90;;;;;;5092853;28;20236;-70
2022/12/11 11:53:55;;;;;;;28.00;19.87;;;1.90;99.90;;;;;;5094015;28;20234;-70
2022/12/11 11:56:36;;;;;;;25.20;18.43;;;2.10;99.90;;;;;;5081086;28;20188;-70
2022/12/11 11:59:30;;;;;;;26.20;18.20;;;2.10;99.90;;;;;;5073847;28;20189;-70
2022/12/11 12:01:56;;;;;;;23.60;18.23;;;2.10;99.90;;;;;;5073600;28;20216;-69
2022/12/11 12:04:24;;;;;;;25.63;19.73;;;2.00;99.90;;;;;;5073374;28;20668;-69
2022/12/11 12:07:02;;;;;;;26.40;18.87;;;2.10;99.90;;;;;;5073317;28;20601;-69
2022/12/11 12:09:27;;;;;;;25.43;20.17;;;2.20;99.90;;;;;;5073675;28;20177;-69
2022/12/11 12:12:18;;;;;;;28.67;22.23;;;2.20;99.90;;;;;;5073425;28;20210;-69
2022/12/11 12:15:07;;;;;;;27.60;21.67;;;2.30;99.90;;;;;;5072063;28;20181;-69
2022/12/11 12:17:54;;;;;;;26.70;20.90;;;2.40;99.90;;;;;;5073844;28;20184;-69
2022/12/11 12:20:27;;;;;;;25.93;20.47;;;2.40;99.90;;;;;;5073062;28;20186;-69
2022/12/11 12:23:18;;;;;;;27.07;20.43;;;2.40;99.90;;;;;;5053146;28;20196;-69
2022/12/11 12:26:06;;;;;;;26.10;21.20;;;2.40;99.90;;;;;;5091994;28;20186;-69
2022/12/11 12:28:41;;;;;;;31.30;22.43;;;2.30;99.90;;;;;;5094419;28;20193;-69
2022/12/11 12:31:51;;;;;;;29.97;21.03;;;2.30;99.90;;;;;;5113192;28;20219;-69
2022/12/11 12:34:41;;;;;;;30.80;22.93;;;2.20;99.90;;;;;;5076380;28;20655;-70
2022/12/11 12:37:44;;;;;;;27.23;20.73;;;2.30;99.90;;;;;;5093187;28;20185;-69
2022/12/11 12:40:33;;;;;;;27.17;18.97;;;2.10;99.90;;;;;;5051839;28;20680;-69
2022/12/11 12:43:25;;;;;;;29.40;18.47;;;2.00;99.90;;;;;;5106060;23;20235;-69
2022/12/11 12:46:08;;;;;;;33.03;20.63;;;2.00;99.90;;;;;;5082784;28;20177;-69
2022/12/11 12:48:34;;;;;;;30.47;21.13;;;2.00;99.90;;;;;;5079175;28;20212;-69
2022/12/11 12:51:01;;;;;;;30.20;21.27;;;1.90;99.90;;;;;;5085224;28;20280;-69
2022/12/11 12:53:32;;;;;;;27.30;19.90;;;1.70;99.90;;;;;;5064357;28;20183;-69
2022/12/11 12:56:00;;;;;;;27.93;19.13;;;1.70;99.90;;;;;;5070587;28;20311;-73
2022/12/11 12:58:34;;;;;;;32.93;19.67;;;1.60;99.90;;;;;;5070786;28;20178;-69
2022/12/11 13:01:14;;;;;;;31.60;21.30;;;1.60;99.90;;;;;;5071197;28;20318;-69
2022/12/11 13:04:01;;;;;;;29.13;20.57;;;1.70;99.90;;;;;;5068022;28;20181;-70